createdAt,value
2018-08-03T00:01:48.783Z,71.80
2018-08-03T00:06:59.538Z,71.80
2018-08-03T00:12:03.135Z,72.10
2018-08-03T00:17:10.550Z,72.20
2018-08-03T00:22:14.118Z,74.10
2018-08-03T00:27:17.673Z,74.20
2018-08-03T00:32:21.304Z,74.00
2018-08-03T00:37:24.889Z,75.90
2018-08-03T00:47:33.136Z,74.40
2018-08-03T00:52:38.757Z,74.90
2018-08-03T00:57:42.406Z,74.00
2018-08-03T01:02:45.946Z,74.90
2018-08-03T01:07:49.459Z,74.70
2018-08-03T01:12:58.727Z,75.60
2018-08-03T01:18:02.619Z,75.70
2018-08-03T01:23:06.242Z,76.50
2018-08-03T01:28:09.825Z,77.00
2018-08-03T01:33:13.879Z,76.50
2018-08-03T01:43:21.240Z,75.90
2018-08-03T01:48:24.861Z,76.80
2018-08-03T01:53:28.508Z,77.20
2018-08-03T01:58:32.171Z,77.70
2018-08-03T02:03:36.119Z,77.50
2018-08-03T02:08:39.730Z,78.50
2018-08-03T02:13:43.718Z,77.40
2018-08-03T02:18:47.246Z,78.20
2018-08-03T02:23:50.783Z,79.00
2018-08-03T02:28:54.390Z,78.00
2018-08-03T02:33:58.422Z,78.30
2018-08-03T02:44:16.418Z,78.80
2018-08-03T02:49:20.144Z,79.50
2018-08-03T02:54:23.683Z,80.00
2018-08-03T02:59:27.396Z,78.20
2018-08-03T03:04:31.429Z,78.20
2018-08-03T03:09:34.974Z,78.20
2018-08-03T03:14:38.555Z,76.60
2018-08-03T03:19:42.265Z,78.90
2018-08-03T03:24:45.966Z,80.10
2018-08-03T03:29:51.525Z,80.50
2018-08-03T03:34:55.092Z,80.40
2018-08-03T03:39:58.753Z,80.50
2018-08-03T03:45:02.379Z,80.70
2018-08-03T03:50:06.905Z,80.80
2018-08-03T03:55:10.510Z,81.60
2018-08-03T04:00:14.022Z,82.10
2018-08-03T04:05:24.790Z,81.40
2018-08-03T04:10:28.442Z,81.20
2018-08-03T04:15:32.053Z,81.40
2018-08-03T04:20:35.639Z,80.80
2018-08-03T04:25:39.216Z,81.50
2018-08-03T04:30:43.834Z,81.50
2018-08-03T04:35:47.453Z,82.40
2018-08-03T04:40:52.063Z,82.10
2018-08-03T04:45:55.632Z,82.00
2018-08-03T04:50:59.431Z,81.60
2018-08-03T04:56:03.143Z,81.60
2018-08-03T05:01:10.446Z,81.20
2018-08-03T05:06:14.070Z,81.20
2018-08-03T05:11:17.670Z,82.30
2018-08-03T05:16:21.349Z,82.40
2018-08-03T05:21:25.425Z,82.30
2018-08-03T05:26:28.974Z,82.60
2018-08-03T05:31:32.595Z,81.80
2018-08-03T05:36:36.234Z,82.50
2018-08-03T05:41:40.381Z,83.00
2018-08-03T05:46:43.973Z,83.00
2018-08-03T05:51:48.071Z,80.90
2018-08-03T05:56:51.738Z,80.80
2018-08-03T06:01:55.440Z,82.10
2018-08-03T06:06:59.182Z,82.20
2018-08-03T06:12:02.722Z,81.80
2018-08-03T06:17:06.377Z,81.30
2018-08-03T06:22:11.082Z,81.00
2018-08-03T06:27:14.699Z,80.60
2018-08-03T06:32:19.265Z,78.50
2018-08-03T06:37:24.655Z,78.80
2018-08-03T06:42:33.257Z,77.10
2018-08-03T06:47:36.870Z,73.40
2018-08-03T06:52:40.853Z,65.40
2018-08-03T06:57:44.458Z,64.60
2018-08-03T07:02:48.220Z,62.60
2018-08-03T07:07:52.013Z,58.60
2018-08-03T07:12:55.938Z,56.50
2018-08-03T07:17:59.507Z,53.10
2018-08-03T07:23:04.166Z,52.70
2018-08-03T07:28:07.794Z,50.70
2018-08-03T07:33:11.405Z,51.10
2018-08-03T07:38:17.102Z,48.60
2018-08-03T07:43:20.776Z,47.60
2018-08-03T07:48:24.415Z,46.80
2018-08-03T07:53:28.935Z,50.00
2018-08-03T07:58:32.504Z,50.10
2018-08-03T08:03:37.077Z,48.80
2018-08-03T08:08:40.690Z,48.20
2018-08-03T08:13:44.333Z,48.40
2018-08-03T08:18:47.951Z,47.60
2018-08-03T08:23:51.603Z,47.20
2018-08-03T08:28:55.298Z,45.00
2018-08-03T08:34:00.019Z,44.70
2018-08-03T08:39:04.301Z,44.10
2018-08-03T08:44:07.901Z,46.00
2018-08-03T08:49:11.520Z,44.80
2018-08-03T08:54:15.075Z,43.70
2018-08-03T08:59:22.274Z,46.20
2018-08-03T09:04:25.825Z,44.00
2018-08-03T09:09:31.551Z,42.90
2018-08-03T09:14:35.092Z,41.60
2018-08-03T09:19:38.889Z,42.60
2018-08-03T09:24:42.479Z,41.40
2018-08-03T09:29:52.751Z,40.20
2018-08-03T09:34:56.387Z,39.30
2018-08-03T09:40:00.954Z,39.60
2018-08-03T09:45:04.845Z,40.60
2018-08-03T09:50:08.530Z,40.20
2018-08-03T09:55:14.269Z,39.60
2018-08-03T10:00:25.244Z,40.50
2018-08-03T10:05:28.902Z,38.60
2018-08-03T10:10:32.546Z,38.70
2018-08-03T10:15:36.291Z,39.20
2018-08-03T10:20:40.936Z,37.70
2018-08-03T10:25:45.638Z,37.60
2018-08-03T10:30:53.009Z,36.70
2018-08-03T10:35:56.725Z,37.90
2018-08-03T10:41:00.505Z,37.40
2018-08-03T10:46:06.478Z,38.30
2018-08-03T10:51:10.385Z,37.10
2018-08-03T10:56:14.157Z,38.20
2018-08-03T11:01:17.891Z,36.20
2018-08-03T11:06:21.513Z,41.30
2018-08-03T11:11:25.086Z,40.90
2018-08-03T11:16:28.771Z,40.80
2018-08-03T11:21:32.434Z,40.30
2018-08-03T11:26:42.525Z,37.70
2018-08-03T11:31:46.538Z,36.70
2018-08-03T11:36:50.350Z,36.20
2018-08-03T11:41:54.374Z,35.10
2018-08-03T11:46:58.001Z,34.70
2018-08-03T11:52:02.101Z,34.00
2018-08-03T11:57:06.023Z,35.30
2018-08-03T12:02:09.714Z,35.90
2018-08-03T12:07:13.666Z,35.40
2018-08-03T12:12:17.328Z,33.30
2018-08-03T12:17:20.977Z,34.70
2018-08-03T12:22:24.704Z,33.80
2018-08-03T12:27:29.294Z,35.30
2018-08-03T12:32:33.274Z,36.20
2018-08-03T12:37:40.193Z,34.70
2018-08-03T12:42:45.138Z,35.70
2018-08-03T12:47:53.573Z,36.30
2018-08-03T12:52:57.377Z,36.30
2018-08-03T12:58:01.335Z,38.00
2018-08-03T13:03:05.342Z,40.40
2018-08-03T13:08:09.273Z,42.80
2018-08-03T13:13:13.077Z,43.50
2018-08-03T13:18:16.685Z,41.30
2018-08-03T13:23:24.154Z,39.40
2018-08-03T13:28:27.727Z,40.90
2018-08-03T13:33:34.662Z,38.30
2018-08-03T13:38:38.254Z,42.70
2018-08-03T13:43:42.924Z,42.20
2018-08-03T13:48:47.827Z,42.80
2018-08-03T13:53:51.470Z,43.60
2018-08-03T13:58:55.261Z,41.30
2018-08-03T14:03:58.836Z,41.60
2018-08-03T14:09:02.437Z,40.90
2018-08-03T14:14:05.997Z,40.10
2018-08-03T14:19:09.636Z,38.50
2018-08-03T14:24:21.060Z,40.70
2018-08-03T14:29:24.663Z,44.40
2018-08-03T14:34:28.286Z,40.60
2018-08-03T14:39:31.982Z,40.30
2018-08-03T14:44:35.529Z,38.60
2018-08-03T14:49:39.430Z,37.50
2018-08-03T14:54:43.061Z,37.90
2018-08-03T14:59:46.650Z,38.10
2018-08-03T15:04:58.091Z,37.40
2018-08-03T15:10:01.654Z,37.70
2018-08-03T15:15:05.797Z,37.00
2018-08-03T15:20:10.437Z,37.70
2018-08-03T15:25:14.618Z,38.50
2018-08-03T15:30:18.338Z,37.00
2018-08-03T15:35:23.000Z,37.60
2018-08-03T15:40:27.747Z,38.00
2018-08-03T15:45:31.641Z,37.20
2018-08-03T15:50:35.437Z,41.30
2018-08-03T15:55:52.694Z,37.50
2018-08-03T16:00:56.943Z,38.60
2018-08-03T16:06:00.673Z,38.00
2018-08-03T16:11:04.282Z,41.80
2018-08-03T16:16:08.352Z,40.60
2018-08-03T16:21:11.950Z,38.10
2018-08-03T16:26:15.739Z,39.40
2018-08-03T16:31:19.458Z,35.70
2018-08-03T16:36:23.138Z,43.60
2018-08-03T16:41:27.545Z,34.90
2018-08-03T16:46:31.420Z,34.50
2018-08-03T16:51:35.503Z,35.60
2018-08-03T16:56:39.198Z,36.00
2018-08-03T17:01:43.943Z,37.80
2018-08-03T17:06:49.566Z,40.90
2018-08-03T17:11:53.314Z,43.30
2018-08-03T17:16:56.945Z,47.10
2018-08-03T17:22:05.206Z,46.30
2018-08-03T17:27:12.178Z,44.30
2018-08-03T17:32:17.498Z,43.30
2018-08-03T17:37:21.184Z,43.40
2018-08-03T17:42:24.894Z,43.40
2018-08-03T17:47:28.601Z,43.90
2018-08-03T17:52:33.386Z,45.20
2018-08-03T17:57:38.969Z,45.80
2018-08-03T18:02:42.792Z,43.90
2018-08-03T18:07:48.768Z,45.20
2018-08-03T18:12:53.538Z,46.10
2018-08-03T18:17:57.335Z,48.50
2018-08-03T18:23:04.301Z,44.30
2018-08-03T18:28:08.138Z,47.00
2018-08-03T18:33:13.289Z,45.90
2018-08-03T18:38:16.922Z,48.40
2018-08-03T18:43:21.579Z,47.30
2018-08-03T18:48:25.135Z,48.40
2018-08-03T18:53:30.858Z,48.50
2018-08-03T18:58:34.490Z,49.70
2018-08-03T19:03:43.507Z,51.20
2018-08-03T19:08:47.105Z,50.10
2018-08-03T19:13:50.722Z,51.10
2018-08-03T19:18:54.223Z,51.50
2018-08-03T19:23:58.041Z,50.30
2018-08-03T19:29:01.590Z,50.20
2018-08-03T19:34:07.184Z,54.10
2018-08-03T19:39:11.756Z,51.50
2018-08-03T19:44:15.341Z,52.00
2018-08-03T19:49:19.027Z,54.70
2018-08-03T19:54:22.651Z,54.00
2018-08-03T19:59:26.241Z,54.80
2018-08-03T20:04:29.990Z,53.40
2018-08-03T20:09:33.570Z,55.60
2018-08-03T20:14:37.220Z,54.40
2018-08-03T20:19:40.822Z,54.00
2018-08-03T20:24:44.727Z,55.40
2018-08-03T20:29:48.366Z,55.70
2018-08-03T20:34:52.556Z,54.30
2018-08-03T20:39:57.234Z,54.50
2018-08-03T20:45:01.074Z,57.10
2018-08-03T20:50:04.661Z,51.60
2018-08-03T20:55:08.323Z,51.70
2018-08-03T21:00:12.070Z,52.90
2018-08-03T21:05:15.721Z,55.90
2018-08-03T21:10:19.311Z,53.90
2018-08-03T21:15:22.833Z,54.00
2018-08-03T21:20:26.417Z,54.20
2018-08-03T21:25:30.262Z,54.20
2018-08-03T21:30:33.903Z,54.50
2018-08-03T21:35:37.487Z,54.30
2018-08-03T21:41:00.055Z,54.50
2018-08-03T21:46:03.570Z,55.00
2018-08-03T21:51:07.418Z,56.50
2018-08-03T21:56:10.936Z,57.50
2018-08-03T22:01:14.518Z,58.70
2018-08-03T22:06:18.154Z,62.20
2018-08-03T22:11:35.397Z,59.10
2018-08-03T22:16:39.305Z,58.60
2018-08-03T22:21:43.078Z,59.90
2018-08-03T22:26:46.672Z,59.90
2018-08-03T22:31:50.763Z,61.00
2018-08-03T22:36:54.405Z,61.40
2018-08-03T22:41:59.162Z,62.50
2018-08-03T22:47:02.721Z,61.10
2018-08-03T22:52:06.380Z,60.80
2018-08-03T22:57:09.974Z,61.80
2018-08-03T23:02:18.461Z,62.40
2018-08-03T23:07:22.154Z,62.60
2018-08-03T23:12:25.761Z,64.90
2018-08-03T23:17:29.362Z,61.80
2018-08-03T23:22:33.003Z,61.60
2018-08-03T23:27:36.611Z,63.40
2018-08-03T23:32:40.790Z,63.70
2018-08-03T23:37:44.374Z,63.00
2018-08-03T23:42:47.922Z,64.40
2018-08-03T23:47:51.504Z,63.90
2018-08-03T23:52:55.106Z,62.80
2018-08-03T23:57:58.646Z,64.00
